Time;durP1;ratioP1;P1;durP2;ratioP2;P2;SDS_P1;SDS_P2;PMS_P1;PMS_P2;Temp;Humidity;BMP_temperature;BMP_pressure;BME280_temperature;BME280_humidity;BME280_pressure;Samples;Min_cycle;Max_cycle;Signal;HPM_P1;HPM_P2
2023/01/26 00:00:53;;;;;;;48.78;18.50;;;-0.20;99.90;;;;;;5118874;28;20404;-91
2023/01/26 00:03:19;;;;;;;49.22;18.98;;;-0.20;99.90;;;;;;5113422;28;20447;-90
2023/01/26 00:05:45;;;;;;;48.35;18.02;;;-0.20;99.90;;;;;;5130131;28;20074;-91
2023/01/26 00:08:11;;;;;;;52.00;19.10;;;-0.10;99.90;;;;;;5112922;28;20497;-91
2023/01/26 00:10:39;;;;;;;50.67;18.02;;;-0.10;99.90;;;;;;5092993;28;20046;-91
2023/01/26 00:13:05;;;;;;;40.40;14.90;;;-0.20;99.90;;;;;;5105660;28;20373;-91
2023/01/26 00:15:32;;;;;;;48.25;18.20;;;-0.10;99.90;;;;;;5122337;28;20032;-91
2023/01/26 00:17:59;;;;;;;53.50;20.17;;;-0.10;99.90;;;;;;5100593;28;20031;-89
2023/01/26 00:20:25;;;;;;;57.25;20.70;;;-0.10;99.90;;;;;;5112281;28;20040;-90
2023/01/26 00:22:50;;;;;;;51.60;18.95;;;-0.10;99.90;;;;;;5096274;28;20035;-91
2023/01/26 00:25:16;;;;;;;48.13;18.20;;;-0.10;99.90;;;;;;5130230;27;20088;-90
2023/01/26 00:27:41;;;;;;;61.88;21.48;;;-0.10;99.90;;;;;;5117175;27;20051;-90
2023/01/26 00:30:07;;;;;;;49.75;19.25;;;-0.10;99.90;;;;;;5133997;27;20513;-91
2023/01/26 00:32:37;;;;;;;57.80;20.15;;;-0.10;99.90;;;;;;5133525;27;20035;-90
2023/01/26 00:35:04;;;;;;;49.35;19.80;;;-0.10;99.90;;;;;;5133993;27;20565;-90
2023/01/26 00:37:30;;;;;;;50.85;20.55;;;-0.10;99.90;;;;;;5121707;27;20043;-90
2023/01/26 00:39:55;;;;;;;57.95;22.30;;;-0.10;99.90;;;;;;5112941;28;20047;-90
2023/01/26 00:42:22;;;;;;;55.08;19.60;;;-0.10;99.90;;;;;;5111321;28;20039;-90
2023/01/26 00:44:49;;;;;;;52.75;18.73;;;-0.10;99.90;;;;;;5096442;28;20065;-89
2023/01/26 00:47:15;;;;;;;40.53;17.15;;;-0.10;99.90;;;;;;5147092;27;20088;-90
2023/01/26 00:49:41;;;;;;;49.08;17.05;;;-0.10;99.90;;;;;;5116334;27;20087;-90
2023/01/26 00:52:06;;;;;;;51.55;22.63;;;-0.10;99.90;;;;;;5133551;27;20043;-90
2023/01/26 00:54:32;;;;;;;49.92;19.02;;;-0.10;99.90;;;;;;5109223;28;20039;-90
2023/01/26 00:56:58;;;;;;;53.20;19.88;;;-0.10;99.90;;;;;;5129954;27;20581;-91
2023/01/26 00:59:24;;;;;;;44.17;17.45;;;-0.10;99.90;;;;;;5095214;28;20043;-90
2023/01/26 01:01:51;;;;;;;57.97;20.40;;;-0.10;99.90;;;;;;5113256;27;20031;-89
2023/01/26 01:04:17;;;;;;;46.85;18.08;;;-0.10;99.90;;;;;;5133144;27;20083;-89
2023/01/26 01:06:42;;;;;;;54.75;19.42;;;-0.10;99.90;;;;;;5115090;27;20117;-90
2023/01/26 01:09:08;;;;;;;68.03;22.08;;;-0.10;99.90;;;;;;5133245;27;20046;-90
2023/01/26 01:11:34;;;;;;;57.08;21.00;;;-0.10;99.90;;;;;;5115860;27;20114;-90
2023/01/26 01:14:00;;;;;;;60.53;22.23;;;-0.10;99.90;;;;;;5132603;27;20515;-90
2023/01/26 01:16:27;;;;;;;56.70;20.67;;;-0.10;99.90;;;;;;5116023;27;20047;-90
2023/01/26 01:18:53;;;;;;;56.55;21.00;;;-0.10;99.90;;;;;;5115090;27;20031;-89
2023/01/26 01:21:20;;;;;;;57.45;20.73;;;-0.10;99.90;;;;;;5075332;28;20402;-89
2023/01/26 01:23:46;;;;;;;50.40;17.98;;;-0.10;99.90;;;;;;5126086;27;20082;-89
2023/01/26 01:26:12;;;;;;;52.17;19.52;;;-0.10;99.90;;;;;;5127656;27;20408;-89
2023/01/26 01:28:38;;;;;;;43.85;15.55;;;-0.10;99.90;;;;;;5133243;27;20035;-89
2023/01/26 01:31:12;;;;;;;47.50;18.08;;;-0.10;99.90;;;;;;5115031;27;20036;-89
2023/01/26 01:33:38;;;;;;;56.00;22.20;;;-0.10;99.90;;;;;;5112130;27;20028;-90
2023/01/26 01:36:07;;;;;;;55.97;20.63;;;-0.10;99.90;;;;;;5129473;27;20096;-90
2023/01/26 01:38:32;;;;;;;43.10;19.13;;;0.00;99.90;;;;;;5118234;27;20042;-89
2023/01/26 01:40:58;;;;;;;51.88;18.80;;;0.00;99.90;;;;;;5114880;27;20035;-89
2023/01/26 01:43:25;;;;;;;46.40;17.70;;;0.00;99.90;;;;;;5132111;27;20046;-89
2023/01/26 01:45:52;;;;;;;49.85;18.63;;;0.00;99.90;;;;;;5114601;27;20070;-89
2023/01/26 01:48:37;;;;;;;42.38;16.77;;;0.00;99.90;;;;;;5132711;27;20070;-90
2023/01/26 01:51:07;;;;;;;44.80;17.80;;;0.00;99.90;;;;;;5105414;28;20031;-89
2023/01/26 01:53:36;;;;;;;46.22;17.35;;;0.00;99.90;;;;;;5094593;28;20046;-90
2023/01/26 01:56:07;;;;;;;54.58;19.73;;;0.00;99.90;;;;;;5118458;27;20114;-89
2023/01/26 01:58:38;;;;;;;49.38;18.63;;;0.00;99.90;;;;;;5114887;27;20114;-90
2023/01/26 02:01:04;;;;;;;45.88;18.27;;;0.00;99.90;;;;;;5114827;27;20122;-90
2023/01/26 02:03:31;;;;;;;42.45;16.40;;;0.10;99.90;;;;;;5110537;27;20114;-90
2023/01/26 02:06:03;;;;;;;41.75;16.80;;;0.00;99.90;;;;;;5114910;27;20039;-90
2023/01/26 02:08:43;;;;;;;35.75;13.98;;;0.10;99.90;;;;;;5107070;28;20036;-89
2023/01/26 02:11:13;;;;;;;40.30;15.05;;;0.10;99.90;;;;;;5094796;28;20036;-90
2023/01/26 02:13:41;;;;;;;49.03;16.75;;;0.10;99.90;;;;;;5107946;27;20035;-90
2023/01/26 02:16:06;;;;;;;43.78;17.38;;;0.10;99.90;;;;;;5132069;27;20087;-89
2023/01/26 02:18:32;;;;;;;46.67;17.73;;;0.00;99.90;;;;;;5114070;27;20109;-90
2023/01/26 02:21:01;;;;;;;44.38;16.30;;;0.10;99.90;;;;;;5130698;27;20043;-90
2023/01/26 02:23:45;;;;;;;33.60;13.95;;;0.10;99.90;;;;;;5131284;27;20035;-90
2023/01/26 02:26:15;;;;;;;48.28;19.05;;;0.10;99.90;;;;;;5098979;28;20071;-89
2023/01/26 02:28:42;;;;;;;36.35;15.35;;;0.10;99.90;;;;;;5145901;27;20069;-90
2023/01/26 02:31:09;;;;;;;45.55;16.95;;;0.10;99.90;;;;;;5083013;28;20035;-89
2023/01/26 02:33:35;;;;;;;40.55;15.13;;;0.10;99.90;;;;;;5107252;28;20040;-90
2023/01/26 02:36:02;;;;;;;46.88;16.95;;;0.10;99.90;;;;;;5110962;27;20045;-90
2023/01/26 02:38:35;;;;;;;41.53;16.80;;;0.10;99.90;;;;;;5093612;28;20040;-90
2023/01/26 02:41:05;;;;;;;37.10;14.50;;;0.20;99.90;;;;;;5113818;27;20039;-89
2023/01/26 02:43:31;;;;;;;40.00;15.25;;;0.20;99.90;;;;;;5112722;27;20122;-90
2023/01/26 02:45:57;;;;;;;43.15;16.30;;;0.20;99.90;;;;;;5114292;27;20084;-90
2023/01/26 02:51:11;;;;;;;32.30;13.90;;;0.20;99.90;;;;;;5131517;27;20492;-89
2023/01/26 02:53:39;;;;;;;35.20;13.15;;;0.20;99.90;;;;;;5131308;27;20038;-90
2023/01/26 02:56:05;;;;;;;33.20;13.02;;;0.20;99.90;;;;;;5114193;27;20721;-90
2023/01/26 02:58:31;;;;;;;32.53;12.57;;;0.30;99.90;;;;;;5114196;27;20687;-90
2023/01/26 03:00:56;;;;;;;31.55;12.18;;;0.30;99.90;;;;;;5109111;28;20032;-89
2023/01/26 03:03:25;;;;;;;33.00;13.00;;;0.30;99.90;;;;;;5127793;27;20046;-90
2023/01/26 03:05:51;;;;;;;28.95;12.30;;;0.30;99.90;;;;;;5100845;27;20030;-90
2023/01/26 03:08:17;;;;;;;27.17;11.25;;;0.30;99.90;;;;;;5094495;28;20031;-90
2023/01/26 03:10:46;;;;;;;32.58;12.60;;;0.30;99.90;;;;;;5115745;28;20402;-90
2023/01/26 03:13:11;;;;;;;24.15;9.90;;;0.30;99.90;;;;;;5130441;27;20108;-90
2023/01/26 03:15:46;;;;;;;29.88;11.43;;;0.30;99.90;;;;;;5130962;27;20043;-89
2023/01/26 03:29:18;;;;;;;19.60;7.00;;;0.40;99.90;;;;;;5130507;28;20047;-89
2023/01/26 03:31:43;;;;;;;27.95;9.80;;;0.40;99.90;;;;;;5130746;28;20039;-89
2023/01/26 03:34:09;;;;;;;21.25;9.98;;;0.40;99.90;;;;;;5112861;28;20043;-89
2023/01/26 03:36:36;;;;;;;23.90;8.93;;;0.40;99.90;;;;;;5113396;28;20047;-89
2023/01/26 03:39:01;;;;;;;21.77;8.35;;;0.40;99.90;;;;;;5113347;28;20039;-89
2023/01/26 03:57:52;;;;;;;18.65;7.70;;;0.50;99.90;;;;;;5133823;27;20039;-90
2023/01/26 04:00:18;;;;;;;21.17;8.82;;;0.50;99.90;;;;;;5117461;27;20054;-90
2023/01/26 04:08:23;;;;;;;17.05;6.72;;;0.50;99.90;;;;;;5113874;27;20122;-90
2023/01/26 04:10:50;;;;;;;21.90;7.70;;;0.50;99.90;;;;;;5117691;27;20082;-90
2023/01/26 04:21:32;;;;;;;15.95;6.85;;;0.50;99.90;;;;;;5133603;27;20122;-90
2023/01/26 04:23:59;;;;;;;19.05;7.53;;;0.50;99.90;;;;;;5133902;27;20042;-89
2023/01/26 04:26:33;;;;;;;16.65;6.40;;;0.50;99.90;;;;;;5115847;27;20039;-90
2023/01/26 04:29:09;;;;;;;17.13;6.38;;;0.60;99.90;;;;;;5096792;28;20066;-90
2023/01/26 04:31:36;;;;;;;14.85;6.10;;;0.60;99.90;;;;;;5096402;28;20039;-89
2023/01/26 04:34:05;;;;;;;17.80;6.95;;;0.60;99.90;;;;;;5120966;27;20035;-89
2023/01/26 04:36:31;;;;;;;16.88;7.13;;;0.60;99.90;;;;;;5096491;28;20400;-89
2023/01/26 04:38:57;;;;;;;16.20;6.45;;;0.60;99.90;;;;;;5130002;27;20099;-90
2023/01/26 04:41:23;;;;;;;16.95;5.70;;;0.60;99.90;;;;;;5113538;28;20485;-89
2023/01/26 04:43:48;;;;;;;18.33;6.57;;;0.60;99.90;;;;;;5130300;27;20123;-89
2023/01/26 04:46:14;;;;;;;17.65;6.97;;;0.70;99.90;;;;;;5129453;27;20119;-89
2023/01/26 04:48:40;;;;;;;17.70;6.65;;;0.70;99.90;;;;;;5147565;27;20484;-89
2023/01/26 04:51:13;;;;;;;19.73;6.60;;;0.70;99.90;;;;;;5112557;28;20051;-89
2023/01/26 04:53:38;;;;;;;18.58;7.18;;;0.70;99.90;;;;;;5115786;27;20039;-89
2023/01/26 04:56:04;;;;;;;16.50;5.90;;;0.70;99.90;;;;;;5133645;27;20103;-90
2023/01/26 04:58:31;;;;;;;19.08;7.60;;;0.70;99.90;;;;;;5132976;27;20070;-89
2023/01/26 05:00:57;;;;;;;16.15;6.25;;;0.70;99.90;;;;;;5116024;27;20046;-90
2023/01/26 05:03:25;;;;;;;17.38;6.32;;;0.70;99.90;;;;;;5115626;27;20031;-89
2023/01/26 05:05:53;;;;;;;16.23;6.20;;;0.70;99.90;;;;;;5124398;27;20028;-89
2023/01/26 05:08:20;;;;;;;22.73;6.70;;;0.70;99.90;;;;;;5095920;28;20036;-90
2023/01/26 05:10:46;;;;;;;16.50;6.07;;;0.70;99.90;;;;;;5147425;27;20501;-89
2023/01/26 05:13:12;;;;;;;16.60;6.57;;;0.80;99.90;;;;;;5113688;27;20042;-90
2023/01/26 05:15:39;;;;;;;16.67;6.90;;;0.80;99.90;;;;;;5133150;27;20396;-89
2023/01/26 05:18:05;;;;;;;17.40;7.00;;;0.80;99.90;;;;;;5115396;27;20113;-90
2023/01/26 05:20:31;;;;;;;18.60;6.43;;;0.80;99.90;;;;;;5115926;27;20039;-90
2023/01/26 05:22:57;;;;;;;14.13;6.07;;;0.80;99.90;;;;;;5132147;27;20038;-89
2023/01/26 05:25:23;;;;;;;17.35;6.22;;;0.80;99.90;;;;;;5096909;28;20110;-90
2023/01/26 05:27:49;;;;;;;16.58;6.72;;;0.80;99.90;;;;;;5129514;27;20051;-90
2023/01/26 05:30:15;;;;;;;15.82;5.85;;;0.80;99.90;;;;;;5119595;27;20593;-89
2023/01/26 05:32:41;;;;;;;15.68;5.88;;;0.80;99.90;;;;;;5091642;28;20486;-90
2023/01/26 05:35:07;;;;;;;17.85;6.97;;;0.80;99.90;;;;;;5099207;27;20393;-90
2023/01/26 05:37:33;;;;;;;16.15;6.40;;;0.90;99.90;;;;;;5132439;27;20480;-90
2023/01/26 05:39:59;;;;;;;21.17;6.95;;;0.80;99.90;;;;;;5131870;27;20537;-90
2023/01/26 05:42:26;;;;;;;17.27;6.82;;;0.90;99.90;;;;;;5115179;27;20028;-90
2023/01/26 05:44:51;;;;;;;16.88;5.95;;;0.90;99.90;;;;;;5115494;27;20073;-89
2023/01/26 05:47:18;;;;;;;13.68;4.82;;;0.90;99.90;;;;;;5124011;27;20473;-90
2023/01/26 05:49:44;;;;;;;16.65;6.28;;;0.90;99.90;;;;;;5114772;27;20031;-90
2023/01/26 05:52:20;;;;;;;17.42;6.50;;;0.90;99.90;;;;;;5132051;27;20047;-90
2023/01/26 05:54:46;;;;;;;14.48;4.88;;;0.90;99.90;;;;;;5114777;27;20035;-90
2023/01/26 05:57:12;;;;;;;14.02;5.30;;;0.90;99.90;;;;;;5132542;27;20095;-90
2023/01/26 05:59:38;;;;;;;15.80;5.47;;;0.90;99.90;;;;;;5108627;28;20044;-90
2023/01/26 06:02:03;;;;;;;13.95;5.22;;;0.90;99.90;;;;;;5094346;28;20046;-90
2023/01/26 06:04:29;;;;;;;14.85;5.53;;;0.90;99.90;;;;;;5128247;27;20112;-90
2023/01/26 06:06:56;;;;;;;17.02;6.72;;;0.90;99.90;;;;;;5111959;28;20035;-90
2023/01/26 06:09:22;;;;;;;15.45;5.90;;;0.90;99.90;;;;;;5097101;27;20031;-90
2023/01/26 06:11:48;;;;;;;12.43;4.75;;;0.90;99.90;;;;;;5114447;27;20062;-89
2023/01/26 06:14:14;;;;;;;13.52;4.88;;;0.90;99.90;;;;;;5130636;27;20568;-89
2023/01/26 06:16:40;;;;;;;16.25;6.28;;;0.90;99.90;;;;;;5130365;27;20381;-90
2023/01/26 06:19:07;;;;;;;13.15;4.95;;;0.90;99.90;;;;;;5131186;27;20416;-90
2023/01/26 06:21:33;;;;;;;13.35;5.57;;;0.90;99.90;;;;;;5131569;27;20035;-89
2023/01/26 06:23:59;;;;;;;14.57;5.53;;;0.90;99.90;;;;;;5113200;27;20034;-90
2023/01/26 06:26:25;;;;;;;16.73;6.00;;;0.90;99.90;;;;;;5131495;27;20395;-89
2023/01/26 06:28:52;;;;;;;17.50;5.65;;;0.90;99.90;;;;;;5129729;27;20389;-90
2023/01/26 06:31:18;;;;;;;17.40;5.65;;;0.90;99.90;;;;;;5114086;27;20038;-89
2023/01/26 06:33:44;;;;;;;16.67;6.30;;;0.90;99.90;;;;;;5113387;27;20121;-89
2023/01/26 06:41:13;;;;;;;16.33;6.53;;;1.00;99.90;;;;;;5071185;28;20056;-85
2023/01/26 06:43:43;;;;;;;18.35;6.40;;;1.00;99.90;;;;;;5052115;28;20056;-85
2023/01/26 06:46:08;;;;;;;18.80;5.88;;;1.00;99.90;;;;;;5053373;28;20072;-86
2023/01/26 06:48:35;;;;;;;16.90;6.80;;;1.00;99.90;;;;;;5051905;28;20066;-86
2023/01/26 06:51:19;;;;;;;16.58;6.35;;;1.00;99.90;;;;;;5053428;28;20499;-85
2023/01/26 06:53:55;;;;;;;17.95;6.22;;;1.10;99.90;;;;;;5049642;28;20036;-86
2023/01/26 06:56:22;;;;;;;19.58;6.28;;;1.00;99.90;;;;;;5066809;28;20071;-85
2023/01/26 06:58:47;;;;;;;21.10;6.50;;;1.00;99.90;;;;;;5058792;28;20037;-85
2023/01/26 07:01:19;;;;;;;18.15;6.28;;;1.10;99.90;;;;;;5054600;28;20118;-85
2023/01/26 07:03:47;;;;;;;19.83;7.53;;;1.10;99.90;;;;;;5068155;28;20075;-85
2023/01/26 07:06:13;;;;;;;18.35;6.07;;;1.10;99.90;;;;;;5067035;28;20442;-86
2023/01/26 07:08:39;;;;;;;22.65;7.00;;;1.10;99.90;;;;;;5102267;28;20032;-86
2023/01/26 07:11:06;;;;;;;27.52;6.90;;;1.10;99.90;;;;;;5101821;28;20512;-86
2023/01/26 07:13:31;;;;;;;22.75;6.82;;;1.10;99.90;;;;;;5051513;28;20037;-86
2023/01/26 07:16:04;;;;;;;24.63;6.93;;;1.10;99.90;;;;;;5068488;28;20047;-86
2023/01/26 07:18:31;;;;;;;24.33;6.78;;;1.10;99.90;;;;;;5069585;28;20032;-86
2023/01/26 07:21:01;;;;;;;27.90;7.78;;;1.20;99.90;;;;;;5052109;28;20501;-86
2023/01/26 07:23:28;;;;;;;26.13;8.75;;;1.20;99.90;;;;;;5078949;28;20052;-86
2023/01/26 07:25:53;;;;;;;22.80;7.35;;;1.20;99.90;;;;;;5068900;28;20039;-86
2023/01/26 07:28:19;;;;;;;35.28;9.00;;;1.20;99.90;;;;;;5058710;28;20033;-86
2023/01/26 07:30:44;;;;;;;22.10;7.57;;;1.20;99.90;;;;;;5078215;28;20037;-86
2023/01/26 07:33:10;;;;;;;23.38;8.40;;;1.20;99.90;;;;;;5074143;28;20040;-86
2023/01/26 07:35:36;;;;;;;29.92;8.23;;;1.20;99.90;;;;;;5057259;28;20127;-86
2023/01/26 07:38:05;;;;;;;37.17;9.38;;;1.20;99.90;;;;;;5071365;28;20037;-85
2023/01/26 07:40:30;;;;;;;43.47;10.00;;;1.20;99.90;;;;;;5062614;28;20557;-86
2023/01/26 07:42:57;;;;;;;30.65;8.27;;;1.30;99.90;;;;;;5062121;28;20044;-87
2023/01/26 07:45:23;;;;;;;32.63;9.38;;;1.30;99.90;;;;;;5057986;28;20036;-88
2023/01/26 07:47:49;;;;;;;32.38;10.77;;;1.30;99.90;;;;;;5074113;28;20043;-88
2023/01/26 07:50:15;;;;;;;36.90;10.05;;;1.30;99.90;;;;;;5056563;28;20128;-87
2023/01/26 07:52:42;;;;;;;37.47;9.48;;;1.30;99.90;;;;;;5063765;28;20036;-88
2023/01/26 07:55:08;;;;;;;30.80;9.88;;;1.30;99.90;;;;;;5056358;28;20067;-88
2023/01/26 07:57:33;;;;;;;33.78;9.60;;;1.30;99.90;;;;;;5059400;28;20493;-88
2023/01/26 07:59:59;;;;;;;28.10;9.43;;;1.30;99.90;;;;;;5055866;28;20067;-88
2023/01/26 08:02:25;;;;;;;26.00;8.85;;;1.40;99.90;;;;;;5060409;28;20079;-88
2023/01/26 08:04:50;;;;;;;31.45;9.30;;;1.40;99.90;;;;;;5063449;28;20461;-87
2023/01/26 08:07:16;;;;;;;27.33;9.43;;;1.40;99.90;;;;;;5071844;28;20044;-87
2023/01/26 08:09:41;;;;;;;23.48;8.55;;;1.50;99.90;;;;;;5082359;28;20408;-88
2023/01/26 08:12:07;;;;;;;31.02;9.70;;;1.50;99.90;;;;;;5072707;28;20242;-87
2023/01/26 08:14:34;;;;;;;36.20;12.13;;;1.50;99.90;;;;;;5073612;28;20040;-87
2023/01/26 08:17:00;;;;;;;33.17;11.40;;;1.50;99.90;;;;;;5073542;28;20051;-88
2023/01/26 08:19:26;;;;;;;32.65;10.98;;;1.50;99.90;;;;;;5071946;28;20042;-87
2023/01/26 08:21:53;;;;;;;37.75;10.85;;;1.50;99.90;;;;;;5055439;28;20047;-88
2023/01/26 08:24:19;;;;;;;35.15;10.88;;;1.60;99.90;;;;;;5070317;28;20047;-88
2023/01/26 08:26:44;;;;;;;30.90;11.02;;;1.60;99.90;;;;;;5073782;28;20032;-88
2023/01/26 08:29:10;;;;;;;29.45;10.85;;;1.60;99.90;;;;;;5074226;28;20036;-89
2023/01/26 08:31:36;;;;;;;32.75;10.32;;;1.70;99.90;;;;;;5055351;28;20037;-88
2023/01/26 08:34:03;;;;;;;35.70;11.68;;;1.70;99.90;;;;;;5079558;28;20036;-88
2023/01/26 08:36:28;;;;;;;40.13;13.48;;;1.70;99.90;;;;;;5071285;28;20054;-87
2023/01/26 08:38:54;;;;;;;28.15;9.98;;;1.80;99.90;;;;;;5074348;28;20032;-88
2023/01/26 08:41:20;;;;;;;31.85;11.27;;;1.80;99.90;;;;;;5065611;28;20033;-88
2023/01/26 08:43:46;;;;;;;36.80;12.68;;;1.80;99.90;;;;;;5071355;28;20044;-88
2023/01/26 08:46:12;;;;;;;34.95;10.82;;;1.80;99.90;;;;;;5056249;28;20040;-87
2023/01/26 08:48:38;;;;;;;27.80;10.90;;;1.90;99.90;;;;;;5055419;28;20040;-88
2023/01/26 08:51:06;;;;;;;31.45;10.52;;;1.90;99.90;;;;;;5053821;28;20451;-88
2023/01/26 08:53:33;;;;;;;29.75;10.68;;;1.90;99.90;;;;;;5057291;28;20590;-86
2023/01/26 08:56:07;;;;;;;35.50;11.40;;;1.90;99.90;;;;;;5054064;28;20051;-87
2023/01/26 08:58:34;;;;;;;31.77;11.70;;;2.00;99.90;;;;;;5074705;28;20044;-87
2023/01/26 09:01:26;;;;;;;30.58;12.10;;;2.00;99.90;;;;;;5061957;28;20040;-87
2023/01/26 09:03:54;;;;;;;33.35;12.75;;;2.00;99.90;;;;;;5053061;28;20508;-86
2023/01/26 09:06:19;;;;;;;28.65;9.85;;;2.00;99.90;;;;;;5085997;28;20036;-87
2023/01/26 09:08:45;;;;;;;30.58;8.40;;;2.00;99.90;;;;;;5074365;28;20101;-87
2023/01/26 09:11:11;;;;;;;24.15;8.73;;;2.00;99.90;;;;;;5080851;28;20123;-87
2023/01/26 09:13:38;;;;;;;30.98;8.05;;;2.00;99.90;;;;;;5071424;28;20040;-87
2023/01/26 09:16:13;;;;;;;25.60;8.88;;;2.10;99.90;;;;;;5086382;28;20040;-84
2023/01/26 09:18:39;;;;;;;27.45;9.40;;;2.10;99.90;;;;;;5073532;28;20032;-86
2023/01/26 09:21:07;;;;;;;21.30;6.80;;;2.10;99.90;;;;;;5085474;28;20090;-86
2023/01/26 09:23:33;;;;;;;27.52;8.70;;;2.10;99.90;;;;;;5072333;28;20036;-87
2023/01/26 09:25:59;;;;;;;20.48;7.13;;;2.10;99.90;;;;;;5053048;28;20103;-87
2023/01/26 09:28:25;;;;;;;39.40;8.00;;;2.10;99.90;;;;;;5096239;28;20024;-87
2023/01/26 09:30:51;;;;;;;22.00;7.45;;;2.20;99.90;;;;;;5053820;28;20040;-87
2023/01/26 09:33:17;;;;;;;35.38;9.15;;;2.20;99.90;;;;;;5055919;28;20033;-86
2023/01/26 09:35:43;;;;;;;33.42;9.65;;;2.20;99.90;;;;;;5052768;28;20125;-87
2023/01/26 09:38:08;;;;;;;28.40;7.93;;;2.30;99.90;;;;;;5060226;28;20119;-87
2023/01/26 09:41:05;;;;;;;36.25;7.93;;;2.40;99.90;;;;;;5089402;28;20031;-87
2023/01/26 09:43:40;;;;;;;22.05;7.20;;;2.40;99.90;;;;;;5087330;28;20062;-87
2023/01/26 09:46:09;;;;;;;16.80;6.68;;;2.50;99.90;;;;;;5053805;28;20044;-87
2023/01/26 09:48:42;;;;;;;33.92;9.57;;;2.60;99.90;;;;;;5053086;28;20044;-88
2023/01/26 09:51:45;;;;;;;22.73;7.28;;;2.70;99.90;;;;;;5081507;28;20579;-87
2023/01/26 09:54:22;;;;;;;17.08;5.90;;;2.80;99.90;;;;;;5074304;28;20131;-88
2023/01/26 09:56:48;;;;;;;16.95;7.20;;;2.80;99.90;;;;;;5068973;28;20165;-87
2023/01/26 09:59:22;;;;;;;19.58;6.20;;;2.90;99.90;;;;;;5073079;28;20149;-87
2023/01/26 10:02:16;;;;;;;23.77;6.03;;;3.00;99.90;;;;;;5090307;28;20120;-87
2023/01/26 10:04:45;;;;;;;14.65;6.15;;;3.10;99.90;;;;;;5072505;28;20028;-87
2023/01/26 10:07:13;;;;;;;18.55;6.43;;;3.20;99.90;;;;;;5089429;28;20032;-89
2023/01/26 10:09:41;;;;;;;18.90;6.35;;;3.30;99.90;;;;;;5069973;28;20500;-88
2023/01/26 10:12:33;;;;;;;15.63;5.72;;;3.40;99.90;;;;;;5073460;28;20032;-88
2023/01/26 10:15:27;;;;;;;18.00;6.15;;;3.40;99.90;;;;;;5062578;28;20051;-88
2023/01/26 10:17:54;;;;;;;22.20;6.38;;;3.50;99.90;;;;;;5089885;28;20044;-87
2023/01/26 10:21:00;;;;;;;17.38;5.47;;;3.70;99.90;;;;;;5081902;28;20119;-88
2023/01/26 10:23:33;;;;;;;20.30;7.07;;;3.80;99.90;;;;;;4976755;28;20430;-88
2023/01/26 10:26:22;;;;;;;21.50;5.25;;;3.90;99.90;;;;;;4992187;28;20089;-88
2023/01/26 10:28:50;;;;;;;23.00;6.75;;;4.00;99.90;;;;;;4978287;28;20057;-88
2023/01/26 10:31:29;;;;;;;18.13;5.78;;;4.20;99.90;;;;;;4975871;28;20045;-87
2023/01/26 10:34:15;;;;;;;21.52;6.43;;;4.30;99.90;;;;;;4988492;28;20046;-85
2023/01/26 10:36:43;;;;;;;22.33;6.47;;;4.50;99.90;;;;;;4991560;28;20556;-88
2023/01/26 10:39:11;;;;;;;22.15;6.05;;;4.70;99.90;;;;;;4983936;28;20065;-88
2023/01/26 10:41:38;;;;;;;28.25;6.78;;;4.90;99.90;;;;;;4970263;28;20133;-89
2023/01/26 10:44:09;;;;;;;27.10;6.40;;;5.10;99.90;;;;;;4992707;28;20048;-89
2023/01/26 10:46:38;;;;;;;25.23;6.25;;;5.30;99.90;;;;;;4990351;28;20053;-89
2023/01/26 10:49:13;;;;;;;27.70;7.28;;;5.50;99.90;;;;;;4992350;28;20034;-89
2023/01/26 10:51:43;;;;;;;25.58;6.50;;;5.60;99.90;;;;;;4990838;28;20049;-88
2023/01/26 10:54:23;;;;;;;23.15;6.93;;;5.80;99.90;;;;;;5039860;28;20411;-89
2023/01/26 10:56:51;;;;;;;23.10;5.78;;;6.00;99.90;;;;;;5069999;28;20119;-89
2023/01/26 10:59:48;;;;;;;24.40;5.72;;;6.20;99.90;;;;;;5052861;28;20033;-89
2023/01/26 11:02:14;;;;;;;26.20;6.45;;;6.40;99.90;;;;;;5070022;28;20044;-89
2023/01/26 11:04:40;;;;;;;26.30;5.95;;;6.60;99.90;;;;;;5075387;28;20408;-89
2023/01/26 11:07:25;;;;;;;22.30;5.13;;;6.80;99.90;;;;;;5089558;28;20560;-89
2023/01/26 11:09:52;;;;;;;22.67;5.47;;;7.00;99.90;;;;;;5072951;28;20093;-89
2023/01/26 11:12:19;;;;;;;23.98;5.97;;;7.20;99.90;;;;;;5070479;28;20044;-90
2023/01/26 11:15:01;;;;;;;26.58;4.78;;;7.40;99.90;;;;;;5073018;28;20043;-90
2023/01/26 11:17:38;;;;;;;23.30;3.78;;;7.60;99.90;;;;;;5068643;28;20039;-90
2023/01/26 11:20:22;;;;;;;21.65;3.42;;;7.90;99.90;;;;;;5073395;28;20047;-90
2023/01/26 11:23:11;;;;;;;26.20;4.13;;;8.20;99.90;;;;;;5088011;28;20039;-90
2023/01/26 11:25:36;;;;;;;15.52;3.30;;;8.40;99.90;;;;;;5054198;28;20049;-90
2023/01/26 11:28:36;;;;;;;18.70;3.13;;;8.60;99.90;;;;;;5089676;28;20039;-90
2023/01/26 11:31:21;;;;;;;20.92;3.88;;;8.80;99.90;;;;;;5032907;28;20036;-89
2023/01/26 11:34:05;;;;;;;20.92;3.13;;;9.10;99.90;;;;;;5041378;28;20075;-89
2023/01/26 11:36:40;;;;;;;19.98;3.83;;;9.30;99.90;;;;;;5088377;28;20046;-89
2023/01/26 11:39:35;;;;;;;20.77;3.88;;;9.50;99.90;;;;;;5088494;28;20044;-90
2023/01/26 11:42:27;;;;;;;17.10;2.85;;;9.60;99.90;;;;;;5067612;28;20511;-89
2023/01/26 11:45:06;;;;;;;19.80;4.63;;;9.90;99.90;;;;;;5053680;28;20033;-90
2023/01/26 11:47:43;;;;;;;19.00;3.78;;;10.00;99.90;;;;;;5062852;28;20048;-90
2023/01/26 11:50:21;;;;;;;22.50;3.70;;;10.30;99.90;;;;;;5071817;28;20044;-89
2023/01/26 11:53:05;;;;;;;19.67;3.67;;;10.50;99.90;;;;;;5057712;28;20068;-89
2023/01/26 11:55:33;;;;;;;16.55;3.53;;;10.70;99.90;;;;;;5076215;28;20036;-90
2023/01/26 11:58:22;;;;;;;18.85;4.07;;;10.90;99.90;;;;;;5055183;28;20593;-90
2023/01/26 12:00:53;;;;;;;17.25;3.20;;;11.10;99.90;;;;;;5088370;28;20101;-89
2023/01/26 12:03:26;;;;;;;19.63;4.30;;;11.40;99.90;;;;;;5089869;28;20063;-90
2023/01/26 12:05:57;;;;;;;25.33;4.25;;;11.60;99.90;;;;;;5055080;28;20113;-90
2023/01/26 12:08:37;;;;;;;19.42;3.47;;;11.80;99.90;;;;;;5052514;28;20036;-89
2023/01/26 12:11:24;;;;;;;19.25;4.15;;;12.10;99.90;;;;;;5065302;28;20043;-90
2023/01/26 12:14:14;;;;;;;23.20;4.30;;;12.40;99.90;;;;;;5073225;28;20040;-90
2023/01/26 12:16:52;;;;;;;25.15;5.57;;;12.60;99.90;;;;;;5069144;28;20504;-90
2023/01/26 12:19:55;;;;;;;24.48;3.95;;;13.10;99.90;;;;;;5075560;28;20063;-89
2023/01/26 12:22:29;;;;;;;17.17;3.40;;;13.30;99.90;;;;;;5088960;28;20044;-90
2023/01/26 12:25:12;;;;;;;16.10;3.38;;;13.60;99.90;;;;;;5077122;28;20043;-90
2023/01/26 12:27:45;;;;;;;18.45;3.67;;;13.90;99.90;;;;;;5069763;28;20033;-90
2023/01/26 12:30:38;;;;;;;18.60;3.75;;;14.00;99.90;;;;;;5075559;28;20127;-90
2023/01/26 12:33:04;;;;;;;18.98;3.47;;;13.90;99.90;;;;;;5092309;28;20149;-89
2023/01/26 12:35:47;;;;;;;20.77;5.00;;;14.00;99.90;;;;;;5092614;28;20073;-90
2023/01/26 12:38:27;;;;;;;;;;;13.90;99.90;;;;;;5078846;28;20405;-90
2023/01/26 12:41:20;;;;;;;15.65;3.35;;;14.00;99.90;;;;;;5089338;28;19917;-90
2023/01/26 12:44:12;;;;;;;20.33;4.75;;;13.90;99.30;;;;;;5055776;28;20162;-90
2023/01/26 12:46:45;;;;;;;17.40;3.33;;;13.80;97.70;;;;;;5074945;28;20034;-90
2023/01/26 12:49:14;;;;;;;20.83;5.13;;;13.80;99.90;;;;;;5072058;28;20123;-90
2023/01/26 12:51:46;;;;;;;16.55;3.05;;;13.60;98.80;;;;;;5074536;28;20040;-89
2023/01/26 12:54:30;;;;;;;22.37;4.70;;;13.30;99.90;;;;;;5055456;28;20043;-90
2023/01/26 12:56:58;;;;;;;19.70;5.05;;;12.90;99.90;;;;;;5070040;28;20485;-90
2023/01/26 12:59:32;;;;;;;14.52;3.13;;;12.70;99.90;;;;;;5079095;28;20812;-90
2023/01/26 13:01:59;;;;;;;15.18;2.20;;;12.40;99.90;;;;;;5069396;28;20041;-90
2023/01/26 13:04:25;;;;;;;14.43;2.88;;;12.20;99.90;;;;;;5057238;28;20115;-90
2023/01/26 13:07:29;;;;;;;17.20;4.32;;;11.90;99.90;;;;;;5057176;28;20123;-90
2023/01/26 13:10:13;;;;;;;12.02;2.50;;;11.80;99.90;;;;;;5091593;28;20040;-90
2023/01/26 13:12:52;;;;;;;12.60;2.17;;;11.40;99.90;;;;;;5074951;28;20401;-90
2023/01/26 13:15:21;;;;;;;9.60;1.60;;;11.30;99.90;;;;;;5075054;28;20048;-89
2023/01/26 13:17:51;;;;;;;13.48;3.10;;;11.20;99.90;;;;;;5072310;28;20040;-89
2023/01/26 13:20:42;;;;;;;15.40;2.05;;;11.40;99.90;;;;;;5074772;28;20082;-89
2023/01/26 13:23:26;;;;;;;18.65;3.17;;;11.50;99.90;;;;;;5073556;28;20052;-90
2023/01/26 13:26:14;;;;;;;15.70;2.50;;;11.50;99.90;;;;;;5075914;28;20036;-89
2023/01/26 13:28:40;;;;;;;17.08;2.03;;;11.50;99.90;;;;;;5070093;28;20024;-90
2023/01/26 13:31:07;;;;;;;12.35;3.10;;;12.40;99.90;;;;;;5092356;28;20141;-90
2023/01/26 13:33:33;;;;;;;16.17;4.05;;;14.00;99.90;;;;;;5092941;28;20485;-89
2023/01/26 13:36:02;;;;;;;15.65;3.25;;;15.70;97.80;;;;;;5069560;28;20050;-90
2023/01/26 13:38:42;;;;;;;14.10;3.00;;;17.40;90.20;;;;;;5092125;28;20040;-91
2023/01/26 13:41:15;;;;;;;15.45;2.92;;;18.80;81.40;;;;;;5089477;28;20047;-90
2023/01/26 13:43:48;;;;;;;12.57;2.85;;;20.00;75.00;;;;;;5071354;28;20044;-91
2023/01/26 13:46:41;;;;;;;13.25;2.97;;;20.90;71.10;;;;;;5055091;28;20574;-91